createdAt,value
2018-08-30T00:00:45.008Z,13.50
2018-08-30T00:01:45.020Z,13.70
2018-08-30T00:02:44.834Z,13.30
2018-08-30T00:03:44.760Z,13.60
2018-08-30T00:04:44.654Z,13.40
2018-08-30T00:05:44.565Z,13.90
2018-08-30T00:06:44.477Z,13.40
2018-08-30T00:07:44.392Z,12.90
2018-08-30T00:08:44.429Z,13.80
2018-08-30T00:09:44.212Z,13.20
2018-08-30T00:10:44.135Z,12.90
2018-08-30T00:11:44.035Z,12.10
2018-08-30T00:12:43.948Z,12.50
2018-08-30T00:13:43.877Z,11.90
2018-08-30T00:14:43.767Z,12.10
2018-08-30T00:15:43.797Z,10.80
2018-08-30T00:16:43.593Z,10.30
2018-08-30T00:17:43.503Z,10.50
2018-08-30T00:18:43.427Z,10.70
2018-08-30T00:19:43.324Z,10.70
2018-08-30T00:20:43.239Z,10.10
2018-08-30T00:21:43.150Z,10.60
2018-08-30T00:22:43.162Z,10.80
2018-08-30T00:23:42.987Z,10.40
2018-08-30T00:24:42.886Z,11.10
2018-08-30T00:25:42.793Z,10.90
2018-08-30T00:26:42.731Z,10.10
2018-08-30T00:27:42.622Z,10.80
2018-08-30T00:28:42.542Z,10.90
2018-08-30T00:29:42.540Z,10.50
2018-08-30T00:30:42.349Z,9.00
2018-08-30T00:31:42.264Z,9.80
2018-08-30T00:32:42.173Z,9.30
2018-08-30T00:33:42.099Z,8.70
2018-08-30T00:34:41.996Z,8.70
2018-08-30T00:35:41.909Z,9.10
2018-08-30T00:36:41.819Z,8.40
2018-08-30T00:37:41.729Z,8.90
2018-08-30T00:38:41.661Z,9.00
2018-08-30T00:39:41.555Z,9.00
2018-08-30T00:40:41.467Z,9.90
2018-08-30T00:41:41.377Z,8.90
2018-08-30T00:42:41.292Z,8.80
2018-08-30T00:43:41.312Z,8.90
2018-08-30T00:44:41.112Z,8.70
2018-08-30T00:45:41.021Z,10.20
2018-08-30T00:46:40.934Z,9.20
2018-08-30T00:47:40.855Z,9.20
2018-08-30T00:48:40.768Z,8.80
2018-08-30T00:49:40.791Z,9.70
2018-08-30T00:50:40.576Z,10.90
2018-08-30T00:51:40.490Z,12.20
2018-08-30T00:52:40.396Z,13.00
2018-08-30T00:53:40.323Z,12.90
2018-08-30T00:54:40.217Z,11.40
2018-08-30T00:55:40.131Z,11.50
2018-08-30T00:56:40.043Z,12.30
2018-08-30T00:57:39.952Z,12.40
2018-08-30T00:58:39.879Z,12.30
2018-08-30T00:59:39.776Z,12.40
2018-08-30T01:00:39.685Z,10.60
2018-08-30T01:01:39.596Z,11.30
2018-08-30T01:02:39.507Z,10.60
2018-08-30T01:03:39.432Z,11.90
2018-08-30T01:04:39.327Z,13.10
2018-08-30T01:05:39.240Z,12.70
2018-08-30T01:06:39.146Z,11.00
2018-08-30T01:07:39.059Z,11.80
2018-08-30T01:08:38.995Z,11.60
2018-08-30T01:09:38.876Z,10.30
2018-08-30T01:10:38.790Z,11.40
2018-08-30T01:11:38.698Z,11.80
2018-08-30T01:12:38.618Z,12.00
2018-08-30T01:13:38.536Z,11.90
2018-08-30T01:14:38.429Z,11.90
2018-08-30T01:15:38.341Z,11.80
2018-08-30T01:16:38.252Z,12.40
2018-08-30T01:17:38.161Z,12.60
2018-08-30T01:18:38.087Z,13.30
2018-08-30T01:19:37.977Z,14.60
2018-08-30T01:20:37.888Z,14.80
2018-08-30T01:21:37.796Z,15.80
2018-08-30T01:22:37.710Z,15.10
2018-08-30T01:23:37.637Z,16.30
2018-08-30T01:24:37.531Z,16.40
2018-08-30T01:25:37.436Z,16.50
2018-08-30T01:26:37.347Z,15.70
2018-08-30T01:27:37.256Z,16.20
2018-08-30T01:28:37.182Z,17.30
2018-08-30T01:29:37.074Z,17.50
2018-08-30T01:30:36.990Z,17.10
2018-08-30T01:31:36.911Z,16.80
2018-08-30T01:32:36.804Z,15.90
2018-08-30T01:33:36.731Z,17.70
2018-08-30T01:34:36.622Z,17.40
2018-08-30T01:35:36.528Z,17.80
2018-08-30T01:36:36.440Z,18.20
2018-08-30T01:37:36.347Z,17.90
2018-08-30T01:38:36.260Z,18.90
2018-08-30T01:39:36.180Z,19.10
2018-08-30T01:40:36.075Z,20.80
2018-08-30T01:41:36.013Z,19.00
2018-08-30T01:42:35.891Z,20.60
2018-08-30T01:43:35.804Z,21.10
2018-08-30T01:44:35.726Z,21.20
2018-08-30T01:45:35.615Z,21.30
2018-08-30T01:46:35.527Z,23.60
2018-08-30T01:47:35.433Z,21.10
2018-08-30T01:48:35.342Z,22.60
2018-08-30T01:49:35.269Z,23.70
2018-08-30T01:50:35.156Z,22.20
2018-08-30T01:51:35.067Z,24.50
2018-08-30T01:52:34.972Z,23.80
2018-08-30T01:53:34.883Z,23.50
2018-08-30T01:54:34.806Z,23.50
2018-08-30T01:55:34.698Z,22.20
2018-08-30T01:56:34.609Z,22.10
2018-08-30T01:57:34.516Z,25.40
2018-08-30T01:58:34.423Z,21.70
2018-08-30T01:59:34.350Z,23.60
2018-08-30T02:00:34.237Z,25.30
2018-08-30T02:01:34.151Z,24.80
2018-08-30T02:02:34.055Z,22.40
2018-08-30T02:03:33.962Z,23.10
2018-08-30T02:04:33.886Z,23.50
2018-08-30T02:05:33.777Z,22.10
2018-08-30T02:06:33.686Z,21.10
2018-08-30T02:07:33.594Z,19.10
2018-08-30T02:08:33.504Z,21.70
2018-08-30T02:09:33.428Z,21.20
2018-08-30T02:10:33.320Z,21.90
2018-08-30T02:11:33.227Z,21.30
2018-08-30T02:12:33.141Z,21.70
2018-08-30T02:13:33.042Z,20.00
2018-08-30T02:14:32.967Z,20.80
2018-08-30T02:15:32.858Z,19.20
2018-08-30T02:16:32.772Z,20.00
2018-08-30T02:17:32.675Z,18.40
2018-08-30T02:18:32.588Z,18.10
2018-08-30T02:19:32.510Z,17.40
2018-08-30T02:20:32.405Z,15.60
2018-08-30T02:21:32.310Z,15.60
2018-08-30T02:22:32.216Z,15.90
2018-08-30T02:23:32.124Z,14.60
2018-08-30T02:24:32.060Z,13.70
2018-08-30T02:25:31.940Z,13.30
2018-08-30T02:26:31.852Z,12.20
2018-08-30T02:27:31.759Z,11.90
2018-08-30T02:28:31.959Z,11.20
2018-08-30T02:29:31.592Z,10.40
2018-08-30T02:30:31.485Z,10.20
2018-08-30T02:31:31.394Z,10.60
2018-08-30T02:32:31.300Z,10.30
2018-08-30T02:33:31.221Z,10.10
2018-08-30T02:34:31.136Z,10.00
2018-08-30T02:35:31.133Z,9.80
2018-08-30T02:36:30.937Z,9.90
2018-08-30T02:37:30.846Z,10.40
2018-08-30T02:38:30.751Z,10.20
2018-08-30T02:39:30.680Z,9.40
2018-08-30T02:40:30.566Z,9.60
2018-08-30T02:41:30.478Z,9.40
2018-08-30T02:42:30.501Z,8.60
2018-08-30T02:43:30.295Z,7.90
2018-08-30T02:44:30.221Z,8.40
2018-08-30T02:45:30.111Z,7.10
2018-08-30T02:46:30.020Z,6.40
2018-08-30T02:47:29.929Z,5.80
2018-08-30T02:48:29.836Z,6.30
2018-08-30T02:49:29.866Z,7.10
2018-08-30T02:50:29.655Z,6.70
2018-08-30T02:51:29.561Z,7.00
2018-08-30T02:52:29.472Z,6.70
2018-08-30T02:53:29.384Z,6.50
2018-08-30T02:54:29.301Z,7.00
2018-08-30T02:55:29.199Z,7.30
2018-08-30T02:56:29.204Z,7.00
2018-08-30T02:57:29.022Z,8.30
2018-08-30T02:58:28.924Z,8.30
2018-08-30T02:59:28.849Z,8.40
2018-08-30T03:00:28.739Z,8.40
2018-08-30T03:01:28.648Z,8.50
2018-08-30T03:02:28.558Z,9.40
2018-08-30T03:03:28.574Z,9.90
2018-08-30T03:04:28.393Z,9.90
2018-08-30T03:05:28.281Z,10.40
2018-08-30T03:06:28.191Z,10.20
2018-08-30T03:07:28.104Z,9.70
2018-08-30T03:08:28.010Z,10.10
2018-08-30T03:09:27.931Z,10.00
2018-08-30T03:10:27.924Z,10.60
2018-08-30T03:11:27.732Z,10.10
2018-08-30T03:12:27.642Z,10.70
2018-08-30T03:13:27.551Z,10.90
2018-08-30T03:14:27.465Z,10.20
2018-08-30T03:15:27.384Z,12.10
2018-08-30T03:16:27.282Z,11.80
2018-08-30T03:17:27.285Z,11.60
2018-08-30T03:18:27.094Z,11.60
2018-08-30T03:19:27.026Z,11.00
2018-08-30T03:20:26.915Z,12.60
2018-08-30T03:21:26.823Z,11.90
2018-08-30T03:22:26.732Z,11.60
2018-08-30T03:23:26.636Z,10.90
2018-08-30T03:24:26.680Z,10.80
2018-08-30T03:25:26.456Z,10.80
2018-08-30T03:26:26.365Z,10.80
2018-08-30T03:27:26.275Z,10.20
2018-08-30T03:28:26.184Z,10.20
2018-08-30T03:29:26.093Z,10.60
2018-08-30T03:30:26.233Z,10.30
2018-08-30T03:31:26.019Z,10.00
2018-08-30T03:32:25.818Z,9.30
2018-08-30T03:33:25.731Z,9.70
2018-08-30T03:34:25.636Z,9.60
2018-08-30T03:35:25.561Z,9.00
2018-08-30T03:36:25.458Z,9.00
2018-08-30T03:37:25.364Z,9.40
2018-08-30T03:38:25.269Z,8.60
2018-08-30T03:39:25.186Z,7.90
2018-08-30T03:40:25.109Z,6.80
2018-08-30T03:41:25.002Z,7.30
2018-08-30T03:42:24.905Z,6.40
2018-08-30T03:43:24.816Z,6.30
2018-08-30T03:44:24.726Z,5.50
2018-08-30T03:45:24.650Z,6.20
2018-08-30T03:46:24.549Z,5.40
2018-08-30T03:47:24.451Z,5.10
2018-08-30T03:48:24.362Z,4.90
2018-08-30T03:49:24.271Z,4.90
2018-08-30T03:50:24.196Z,4.70
2018-08-30T03:51:24.090Z,4.60
2018-08-30T03:52:23.999Z,4.80
2018-08-30T03:53:23.905Z,4.10
2018-08-30T03:54:23.817Z,4.30
2018-08-30T03:55:23.744Z,4.70
2018-08-30T03:56:23.632Z,4.80
2018-08-30T03:57:23.544Z,4.80
2018-08-30T03:58:23.455Z,4.50
2018-08-30T03:59:23.360Z,4.30
2018-08-30T04:00:23.293Z,4.10
2018-08-30T04:01:23.184Z,4.00
2018-08-30T04:02:23.089Z,4.20
2018-08-30T04:03:23.001Z,4.00
2018-08-30T04:04:23.041Z,4.30
2018-08-30T04:05:22.835Z,3.90
2018-08-30T04:06:22.727Z,4.00
2018-08-30T04:07:22.638Z,4.30
2018-08-30T04:08:22.546Z,4.30
2018-08-30T04:09:22.458Z,4.10
2018-08-30T04:10:22.385Z,4.20
2018-08-30T04:11:22.281Z,4.70
2018-08-30T04:12:22.183Z,4.40
2018-08-30T04:13:22.155Z,4.00
2018-08-30T04:14:22.002Z,3.80
2018-08-30T04:15:21.930Z,4.10
2018-08-30T04:16:21.824Z,4.00
2018-08-30T04:17:21.727Z,4.30
2018-08-30T04:18:21.641Z,4.80
2018-08-30T04:19:21.550Z,4.60
2018-08-30T04:20:21.474Z,4.40
2018-08-30T04:21:21.369Z,4.10
2018-08-30T04:22:21.276Z,4.00
2018-08-30T04:23:21.187Z,3.90
2018-08-30T04:24:21.095Z,4.10
2018-08-30T04:25:21.022Z,3.80
2018-08-30T04:26:20.912Z,4.00
2018-08-30T04:27:20.824Z,4.40
2018-08-30T04:28:20.734Z,4.30
2018-08-30T04:29:20.643Z,3.90
2018-08-30T04:30:20.571Z,4.20
2018-08-30T04:31:20.475Z,3.60
2018-08-30T04:32:20.373Z,4.10
2018-08-30T04:33:20.279Z,4.30
2018-08-30T04:34:20.192Z,4.50
2018-08-30T04:35:20.120Z,4.10
2018-08-30T04:36:20.016Z,4.80
2018-08-30T04:37:19.930Z,5.10
2018-08-30T04:38:19.830Z,4.70
2018-08-30T04:39:19.745Z,4.40
2018-08-30T04:40:19.665Z,4.90
2018-08-30T04:41:19.556Z,4.40
2018-08-30T04:42:19.503Z,4.50
2018-08-30T04:43:19.380Z,4.50
2018-08-30T04:44:19.287Z,4.70
2018-08-30T04:45:19.215Z,4.70
2018-08-30T04:46:19.121Z,4.80
2018-08-30T04:47:19.014Z,5.10
2018-08-30T04:48:18.925Z,4.70
2018-08-30T04:49:18.835Z,5.00
2018-08-30T04:50:18.827Z,4.70
2018-08-30T04:51:18.653Z,5.00
2018-08-30T04:52:18.564Z,4.80
2018-08-30T04:53:18.469Z,4.50
2018-08-30T04:54:18.484Z,4.90
2018-08-30T04:55:18.309Z,4.70
2018-08-30T04:56:18.222Z,5.00
2018-08-30T04:57:18.115Z,5.00
2018-08-30T04:58:18.019Z,5.20
2018-08-30T04:59:17.931Z,5.00
2018-08-30T05:00:17.861Z,5.30
2018-08-30T05:01:17.751Z,5.00
2018-08-30T05:02:17.661Z,5.10
2018-08-30T05:03:17.570Z,4.90
2018-08-30T05:04:17.481Z,5.10
2018-08-30T05:05:17.404Z,5.30
2018-08-30T05:06:17.298Z,5.20
2018-08-30T05:07:17.208Z,5.10
2018-08-30T05:08:17.217Z,5.20
2018-08-30T05:09:17.034Z,5.20
2018-08-30T05:10:16.944Z,5.60
2018-08-30T05:11:16.865Z,5.90
2018-08-30T05:12:16.758Z,5.60
2018-08-30T05:13:16.665Z,5.90
2018-08-30T05:14:16.578Z,6.20
2018-08-30T05:15:16.589Z,6.20
2018-08-30T05:16:16.419Z,6.60
2018-08-30T05:17:16.305Z,6.60
2018-08-30T05:18:16.228Z,6.90
2018-08-30T05:19:16.127Z,6.40
2018-08-30T05:20:16.042Z,6.90
2018-08-30T05:21:15.962Z,6.50
2018-08-30T05:22:15.956Z,6.40
2018-08-30T05:23:15.765Z,6.70
2018-08-30T05:24:15.673Z,6.40
2018-08-30T05:25:15.587Z,6.70
2018-08-30T05:26:15.513Z,6.90
2018-08-30T05:27:15.403Z,6.90
2018-08-30T05:28:15.313Z,6.70
2018-08-30T05:29:15.335Z,7.10
2018-08-30T05:30:15.136Z,6.80
2018-08-30T05:31:15.062Z,7.30
2018-08-30T05:32:14.952Z,7.10
2018-08-30T05:33:14.863Z,7.00
2018-08-30T05:34:14.776Z,6.50
2018-08-30T05:35:14.682Z,7.30
2018-08-30T05:36:14.711Z,7.00
2018-08-30T05:37:14.503Z,7.30
2018-08-30T05:38:14.414Z,6.50
2018-08-30T05:39:14.339Z,6.90
2018-08-30T05:40:14.234Z,7.10
2018-08-30T05:41:14.155Z,6.90
2018-08-30T05:42:14.050Z,7.50
2018-08-30T05:43:14.061Z,6.80
2018-08-30T05:44:13.869Z,7.00
2018-08-30T05:45:13.778Z,7.40
2018-08-30T05:46:13.710Z,6.60
2018-08-30T05:47:13.603Z,7.20
2018-08-30T05:48:13.513Z,6.80
2018-08-30T05:49:13.419Z,7.20
2018-08-30T05:50:13.445Z,6.10
2018-08-30T05:51:13.257Z,5.40
2018-08-30T05:52:13.149Z,4.40
2018-08-30T05:53:13.071Z,4.40
2018-08-30T05:54:12.976Z,3.60
2018-08-30T05:55:12.882Z,3.80
2018-08-30T05:56:12.807Z,3.20
2018-08-30T05:57:12.803Z,2.90
2018-08-30T05:58:12.611Z,3.10
2018-08-30T05:59:12.517Z,3.10
2018-08-30T06:00:12.427Z,3.10
2018-08-30T06:01:12.354Z,3.50
2018-08-30T06:02:12.244Z,3.20
2018-08-30T06:03:12.157Z,3.30
2018-08-30T06:04:12.167Z,3.70
2018-08-30T06:05:11.976Z,3.20
2018-08-30T06:06:11.899Z,3.20
2018-08-30T06:07:11.801Z,3.70
2018-08-30T06:08:11.718Z,3.80
2018-08-30T06:09:11.615Z,3.80
2018-08-30T06:10:11.534Z,4.30
2018-08-30T06:11:11.559Z,4.40
2018-08-30T06:12:11.341Z,4.20
2018-08-30T06:13:11.391Z,4.50
2018-08-30T06:14:11.161Z,5.20
2018-08-30T06:15:11.070Z,5.40
2018-08-30T06:16:10.996Z,5.90
2018-08-30T06:17:10.894Z,5.80
2018-08-30T06:18:10.902Z,6.10
2018-08-30T06:19:10.709Z,6.70
2018-08-30T06:20:10.617Z,6.90
2018-08-30T06:21:10.543Z,7.10
2018-08-30T06:22:10.438Z,7.20
2018-08-30T06:23:10.349Z,8.00
2018-08-30T06:24:10.258Z,8.60
2018-08-30T06:25:10.167Z,9.80
2018-08-30T06:26:10.101Z,10.40
2018-08-30T06:27:09.985Z,10.00
2018-08-30T06:28:09.893Z,10.30
2018-08-30T06:29:09.821Z,11.30
2018-08-30T06:30:09.713Z,11.80
2018-08-30T06:31:09.638Z,11.50
2018-08-30T06:32:09.531Z,12.50
2018-08-30T06:33:09.439Z,12.60
2018-08-30T06:34:09.389Z,12.50
2018-08-30T06:35:09.274Z,12.90
2018-08-30T06:36:09.186Z,13.50
2018-08-30T06:37:09.078Z,13.90
2018-08-30T06:38:09.000Z,13.90
2018-08-30T06:39:08.895Z,14.30
2018-08-30T06:40:08.808Z,14.50
2018-08-30T06:41:08.730Z,15.40
2018-08-30T06:42:08.626Z,15.10
2018-08-30T06:43:08.534Z,15.00
2018-08-30T06:44:08.446Z,15.30
2018-08-30T06:45:08.354Z,15.20
2018-08-30T06:46:08.282Z,14.70
2018-08-30T06:47:08.170Z,15.50
2018-08-30T06:48:08.080Z,15.00
2018-08-30T06:49:08.028Z,15.50
2018-08-30T06:50:07.900Z,16.50
2018-08-30T06:51:07.823Z,17.10
2018-08-30T06:52:07.715Z,16.00
2018-08-30T06:53:07.625Z,16.10
2018-08-30T06:54:07.536Z,16.20
2018-08-30T06:55:07.447Z,16.40
2018-08-30T06:56:07.373Z,17.40
2018-08-30T06:57:07.264Z,16.90
2018-08-30T06:58:07.174Z,17.60
2018-08-30T06:59:07.082Z,16.40
2018-08-30T07:00:06.993Z,17.20
2018-08-30T07:01:06.905Z,17.90
2018-08-30T07:02:06.828Z,17.50
2018-08-30T07:03:06.721Z,17.70
2018-08-30T07:04:06.672Z,18.80
2018-08-30T07:05:06.539Z,17.90
2018-08-30T07:06:06.449Z,16.70
2018-08-30T07:07:06.376Z,17.50
2018-08-30T07:08:06.300Z,18.20
2018-08-30T07:09:06.177Z,18.70
2018-08-30T07:10:06.085Z,18.30
2018-08-30T07:11:06.000Z,18.40
2018-08-30T07:12:05.921Z,17.60
2018-08-30T07:13:05.813Z,18.60
2018-08-30T07:14:05.723Z,17.90
2018-08-30T07:15:05.671Z,18.20
2018-08-30T07:16:05.557Z,18.90
2018-08-30T07:17:05.468Z,18.60
2018-08-30T07:18:05.360Z,18.70
2018-08-30T07:19:05.271Z,18.30
2018-08-30T07:20:05.182Z,18.00
2018-08-30T07:21:05.152Z,18.70
2018-08-30T07:22:05.018Z,17.60
2018-08-30T07:23:04.911Z,18.20
2018-08-30T07:24:04.874Z,18.10
2018-08-30T07:25:04.730Z,18.40
2018-08-30T07:26:04.640Z,17.90
2018-08-30T07:27:04.569Z,17.90
2018-08-30T07:28:04.465Z,18.70
2018-08-30T07:29:04.371Z,18.90
2018-08-30T07:30:04.283Z,17.60
2018-08-30T07:31:04.189Z,18.80
2018-08-30T07:32:04.119Z,18.50
2018-08-30T07:33:04.007Z,18.60
2018-08-30T07:34:03.921Z,18.10
2018-08-30T07:35:03.939Z,17.60
2018-08-30T07:36:03.740Z,19.20
2018-08-30T07:37:03.667Z,18.30
2018-08-30T07:38:03.565Z,18.30
2018-08-30T07:39:03.470Z,18.70
2018-08-30T07:40:03.382Z,18.90
2018-08-30T07:41:03.390Z,18.10
2018-08-30T07:42:03.214Z,18.60
2018-08-30T07:43:03.109Z,18.60
2018-08-30T07:44:03.085Z,19.70
2018-08-30T07:45:02.926Z,20.10
2018-08-30T07:46:02.836Z,20.50
2018-08-30T07:47:02.761Z,20.20
2018-08-30T07:48:02.656Z,20.80
2018-08-30T07:49:02.565Z,20.00
2018-08-30T07:50:02.484Z,19.10
2018-08-30T07:51:02.442Z,19.20
2018-08-30T07:52:02.327Z,18.70
2018-08-30T07:53:02.203Z,18.60
2018-08-30T07:54:02.116Z,17.90
2018-08-30T07:55:02.139Z,18.10
2018-08-30T07:56:01.934Z,17.20
2018-08-30T07:57:01.855Z,17.00
2018-08-30T07:58:01.752Z,17.00
2018-08-30T07:59:01.662Z,16.90
2018-08-30T08:00:01.645Z,17.10
2018-08-30T08:01:01.483Z,16.60
2018-08-30T08:02:01.508Z,15.90
2018-08-30T08:03:01.297Z,15.80
2018-08-30T08:04:01.210Z,17.30
2018-08-30T08:05:01.114Z,16.00
2018-08-30T08:06:01.092Z,17.30
2018-08-30T08:07:00.968Z,16.70
2018-08-30T08:08:00.845Z,16.70
2018-08-30T08:09:00.853Z,17.20
2018-08-30T08:10:00.662Z,17.40
2018-08-30T08:11:00.574Z,17.40
2018-08-30T08:12:00.562Z,17.30
2018-08-30T08:13:00.390Z,16.50
2018-08-30T08:14:00.301Z,17.10
2018-08-30T08:15:00.231Z,17.00
2018-08-30T08:16:00.220Z,17.70
2018-08-30T08:17:00.044Z,17.80
2018-08-30T08:17:59.935Z,16.70
2018-08-30T08:18:59.864Z,16.90
2018-08-30T08:19:59.759Z,17.90
2018-08-30T08:20:59.665Z,18.00
2018-08-30T08:21:59.593Z,18.50
2018-08-30T08:22:59.481Z,17.40
2018-08-30T08:23:59.494Z,16.70
2018-08-30T08:24:59.301Z,17.50
2018-08-30T08:25:59.214Z,17.80
2018-08-30T08:26:59.137Z,17.30
2018-08-30T08:27:59.033Z,17.10
2018-08-30T08:28:58.941Z,17.10
2018-08-30T08:29:58.850Z,17.50
2018-08-30T08:30:58.860Z,16.90
2018-08-30T08:31:58.685Z,16.70
2018-08-30T08:32:58.578Z,16.50
2018-08-30T08:33:58.487Z,17.60
2018-08-30T08:34:58.398Z,16.80
2018-08-30T08:35:58.306Z,16.70
2018-08-30T08:36:58.235Z,17.30
2018-08-30T08:37:58.231Z,17.00
2018-08-30T08:38:58.036Z,16.70
2018-08-30T08:39:57.950Z,17.40
2018-08-30T08:40:57.860Z,16.80
2018-08-30T08:41:57.783Z,17.20
2018-08-30T08:42:57.675Z,16.80
2018-08-30T08:43:57.584Z,17.60
2018-08-30T08:44:57.592Z,17.20
2018-08-30T08:45:57.403Z,17.30
2018-08-30T08:46:57.337Z,17.40
2018-08-30T08:47:57.242Z,17.60
2018-08-30T08:48:57.133Z,17.50
2018-08-30T08:49:57.044Z,16.90
2018-08-30T08:50:56.950Z,18.40
2018-08-30T08:51:56.969Z,16.90
2018-08-30T08:52:56.785Z,17.60
2018-08-30T08:53:56.679Z,17.20
2018-08-30T08:54:56.590Z,17.30
2018-08-30T08:55:56.500Z,17.40
2018-08-30T08:56:56.422Z,16.80
2018-08-30T08:57:56.337Z,16.50
2018-08-30T08:58:56.407Z,16.90
2018-08-30T08:59:56.141Z,16.20
2018-08-30T09:00:56.044Z,16.60
2018-08-30T09:01:55.955Z,16.10
2018-08-30T09:02:55.900Z,15.70
2018-08-30T09:03:55.778Z,15.60
2018-08-30T09:04:55.688Z,16.70
2018-08-30T09:05:55.594Z,16.20
2018-08-30T09:06:55.540Z,16.10
2018-08-30T09:07:55.457Z,16.20
2018-08-30T09:08:55.326Z,15.60
2018-08-30T09:09:55.232Z,15.00
2018-08-30T09:10:55.146Z,14.50
2018-08-30T09:11:55.054Z,14.90
2018-08-30T09:12:54.985Z,15.60
2018-08-30T09:13:54.876Z,15.20
2018-08-30T09:14:54.787Z,15.10
2018-08-30T09:15:54.697Z,15.40
2018-08-30T09:16:54.603Z,15.00
2018-08-30T09:17:54.544Z,15.00
2018-08-30T09:18:54.425Z,15.60
2018-08-30T09:19:54.476Z,15.20
2018-08-30T09:20:54.246Z,14.30
2018-08-30T09:21:54.157Z,14.40
2018-08-30T09:22:54.146Z,15.20
2018-08-30T09:23:53.976Z,14.80
2018-08-30T09:24:53.883Z,14.60
2018-08-30T09:25:53.796Z,14.10
2018-08-30T09:26:53.779Z,14.30
2018-08-30T09:27:53.635Z,14.30
2018-08-30T09:28:53.527Z,14.10
2018-08-30T09:29:53.436Z,13.60
2018-08-30T09:30:53.393Z,13.90
2018-08-30T09:31:53.260Z,13.20
2018-08-30T09:32:53.191Z,13.20
2018-08-30T09:33:53.104Z,13.60
2018-08-30T09:34:52.993Z,13.50
2018-08-30T09:35:52.900Z,12.90
2018-08-30T09:36:52.812Z,12.20
2018-08-30T09:37:52.741Z,13.00
2018-08-30T09:38:52.635Z,13.40
2018-08-30T09:39:52.545Z,12.10
2018-08-30T09:40:52.455Z,11.00
2018-08-30T09:41:52.366Z,10.80
2018-08-30T09:42:52.293Z,9.70
2018-08-30T09:43:52.211Z,8.80
2018-08-30T09:44:52.097Z,9.10
2018-08-30T09:45:52.004Z,9.50
2018-08-30T09:46:51.917Z,9.00
2018-08-30T09:47:51.847Z,8.80
2018-08-30T09:48:51.736Z,9.00
2018-08-30T09:49:51.675Z,8.60
2018-08-30T09:50:51.561Z,8.20
2018-08-30T09:51:51.476Z,8.70
2018-08-30T09:52:51.398Z,7.60
2018-08-30T09:53:51.288Z,7.90
2018-08-30T09:54:51.200Z,7.30
2018-08-30T09:55:51.225Z,7.50
2018-08-30T09:56:51.104Z,7.60
2018-08-30T09:57:50.958Z,7.00
2018-08-30T09:58:50.837Z,7.10
2018-08-30T09:59:50.747Z,6.50
2018-08-30T10:00:50.662Z,6.70
2018-08-30T10:01:50.571Z,6.40
2018-08-30T10:02:50.496Z,6.80
2018-08-30T10:03:50.508Z,6.40
2018-08-30T10:04:50.365Z,6.50
2018-08-30T10:05:50.211Z,6.60
2018-08-30T10:06:50.120Z,6.00
2018-08-30T10:07:50.047Z,5.80
2018-08-30T10:08:49.938Z,5.50
2018-08-30T10:09:49.849Z,5.60
2018-08-30T10:10:49.760Z,5.70
2018-08-30T10:11:49.676Z,5.60
2018-08-30T10:12:49.596Z,5.80
2018-08-30T10:13:49.490Z,5.50
2018-08-30T10:14:49.405Z,6.00
2018-08-30T10:15:49.323Z,5.60
2018-08-30T10:16:49.221Z,5.60
2018-08-30T10:17:49.153Z,5.50
2018-08-30T10:18:49.043Z,5.10
2018-08-30T10:19:48.953Z,5.00
2018-08-30T10:20:48.862Z,4.90
2018-08-30T10:21:48.772Z,5.10
2018-08-30T10:22:48.698Z,5.10
2018-08-30T10:23:48.593Z,5.00
2018-08-30T10:24:48.503Z,4.80
2018-08-30T10:25:48.414Z,4.50
2018-08-30T10:26:48.323Z,4.60
2018-08-30T10:27:48.274Z,4.80
2018-08-30T10:28:48.248Z,5.20
2018-08-30T10:29:48.054Z,5.10
2018-08-30T10:30:47.966Z,5.20
2018-08-30T10:31:47.875Z,5.70
2018-08-30T10:32:47.793Z,5.30
2018-08-30T10:33:47.716Z,5.60
2018-08-30T10:34:47.611Z,5.70
2018-08-30T10:35:47.619Z,5.40
2018-08-30T10:36:47.431Z,5.30
2018-08-30T10:37:47.339Z,5.10
2018-08-30T10:38:47.263Z,5.00
2018-08-30T10:39:47.157Z,5.50
2018-08-30T10:40:47.066Z,4.90
2018-08-30T10:41:46.976Z,5.20
2018-08-30T10:42:47.012Z,5.50
2018-08-30T10:43:46.816Z,5.30
2018-08-30T10:44:46.709Z,5.10
2018-08-30T10:45:46.619Z,5.50
2018-08-30T10:46:46.526Z,5.70
2018-08-30T10:47:46.440Z,4.70
2018-08-30T10:48:46.363Z,5.10
2018-08-30T10:49:46.392Z,5.00
2018-08-30T10:50:46.168Z,5.20
2018-08-30T10:51:46.083Z,5.40
2018-08-30T10:52:45.989Z,5.10
2018-08-30T10:53:45.931Z,4.90
2018-08-30T10:54:45.811Z,5.10
2018-08-30T10:55:45.722Z,5.00
2018-08-30T10:56:45.731Z,4.70
2018-08-30T10:57:45.538Z,4.60
2018-08-30T10:58:45.466Z,4.90
2018-08-30T10:59:45.360Z,5.00
2018-08-30T11:00:45.272Z,5.10
2018-08-30T11:01:45.179Z,5.10
2018-08-30T11:02:45.092Z,4.90
2018-08-30T11:03:45.118Z,5.30
2018-08-30T11:04:44.908Z,4.70
2018-08-30T11:05:44.821Z,5.00
2018-08-30T11:06:44.730Z,5.00
2018-08-30T11:07:44.640Z,4.60
2018-08-30T11:08:44.564Z,4.90
2018-08-30T11:09:44.462Z,4.50
2018-08-30T11:10:44.469Z,4.90
2018-08-30T11:11:44.281Z,4.70
2018-08-30T11:12:44.230Z,4.80
2018-08-30T11:13:44.114Z,5.30
2018-08-30T11:14:44.008Z,5.10
2018-08-30T11:15:43.918Z,5.40
2018-08-30T11:16:43.835Z,5.00
2018-08-30T11:17:43.834Z,4.60
2018-08-30T11:18:43.664Z,4.90
2018-08-30T11:19:43.558Z,5.20
2018-08-30T11:20:43.517Z,5.20
2018-08-30T11:21:43.393Z,5.20
2018-08-30T11:22:43.285Z,5.10
2018-08-30T11:23:43.213Z,5.20
2018-08-30T11:24:43.204Z,4.50
2018-08-30T11:25:43.016Z,4.90
2018-08-30T11:26:42.923Z,4.80
2018-08-30T11:27:42.843Z,4.90
2018-08-30T11:28:42.765Z,4.90
2018-08-30T11:29:42.651Z,4.80
2018-08-30T11:30:42.560Z,4.80
2018-08-30T11:31:42.567Z,4.70
2018-08-30T11:32:42.379Z,5.10
2018-08-30T11:33:42.303Z,4.80
2018-08-30T11:34:42.199Z,4.70
2018-08-30T11:35:42.105Z,4.50
2018-08-30T11:36:42.018Z,4.00
2018-08-30T11:37:41.966Z,4.00
2018-08-30T11:38:41.850Z,3.60
2018-08-30T11:39:41.744Z,3.20
2018-08-30T11:40:41.654Z,3.60
2018-08-30T11:41:41.656Z,3.40
2018-08-30T11:42:41.470Z,3.10
2018-08-30T11:43:41.392Z,3.10
2018-08-30T11:44:41.287Z,2.90
2018-08-30T11:45:41.194Z,2.80
2018-08-30T11:46:41.102Z,2.70
2018-08-30T11:47:41.013Z,2.40
2018-08-30T11:48:40.939Z,2.60
2018-08-30T11:49:40.829Z,2.70
2018-08-30T11:50:40.735Z,2.70
2018-08-30T11:51:40.649Z,2.90
2018-08-30T11:52:40.623Z,2.50
2018-08-30T11:53:40.482Z,2.90
2018-08-30T11:54:40.376Z,2.70
2018-08-30T11:55:40.282Z,2.90
2018-08-30T11:56:40.195Z,2.90
2018-08-30T11:57:40.098Z,2.60
2018-08-30T11:58:40.025Z,2.50
2018-08-30T11:59:39.918Z,2.30
2018-08-30T12:00:39.828Z,2.10
2018-08-30T12:01:39.731Z,2.70
2018-08-30T12:02:39.641Z,2.50
2018-08-30T12:03:39.570Z,2.40
2018-08-30T12:04:39.459Z,2.40
2018-08-30T12:05:39.368Z,2.40
2018-08-30T12:06:39.278Z,2.70
2018-08-30T12:07:39.183Z,2.50
2018-08-30T12:08:39.109Z,2.60
2018-08-30T12:09:39.000Z,2.70
2018-08-30T12:10:38.943Z,2.60
2018-08-30T12:11:38.873Z,2.70
2018-08-30T12:12:38.731Z,2.90
2018-08-30T12:13:38.652Z,2.90
2018-08-30T12:14:38.546Z,3.10
2018-08-30T12:15:38.453Z,2.90
2018-08-30T12:16:38.362Z,3.20
2018-08-30T12:17:38.271Z,3.30
2018-08-30T12:18:38.209Z,3.50
2018-08-30T12:19:38.086Z,3.50
2018-08-30T12:20:38.074Z,3.30
2018-08-30T12:21:37.907Z,3.60
2018-08-30T12:22:37.812Z,3.20
2018-08-30T12:23:37.724Z,3.10
2018-08-30T12:24:37.648Z,3.10
2018-08-30T12:25:37.538Z,3.10
2018-08-30T12:26:37.450Z,3.00
2018-08-30T12:27:37.374Z,3.00
2018-08-30T12:28:37.322Z,3.10
2018-08-30T12:29:37.204Z,3.00
2018-08-30T12:30:37.092Z,2.80
2018-08-30T12:31:37.053Z,2.80
2018-08-30T12:32:36.919Z,3.10
2018-08-30T12:33:36.818Z,2.80
2018-08-30T12:34:36.786Z,2.60
2018-08-30T12:35:36.681Z,2.60
2018-08-30T12:36:36.542Z,2.40
2018-08-30T12:37:36.449Z,2.30
2018-08-30T12:38:36.404Z,2.50
2018-08-30T12:39:36.352Z,2.50
2018-08-30T12:40:36.169Z,2.30
2018-08-30T12:41:36.077Z,2.40
2018-08-30T12:42:36.050Z,2.60
2018-08-30T12:43:36.055Z,2.60
2018-08-30T12:44:35.842Z,2.40
2018-08-30T12:45:35.719Z,2.50
2018-08-30T12:46:35.645Z,2.50
2018-08-30T12:47:35.560Z,2.50
2018-08-30T12:48:35.443Z,2.50
2018-08-30T12:49:35.367Z,2.40
2018-08-30T12:50:35.378Z,2.30
2018-08-30T12:51:35.429Z,2.60
2018-08-30T12:52:35.175Z,2.60
2018-08-30T12:53:35.065Z,2.40
2018-08-30T12:54:35.011Z,3.00
2018-08-30T12:55:34.935Z,2.90
2018-08-30T12:56:34.855Z,2.80
2018-08-30T12:57:34.742Z,2.70
2018-08-30T12:58:34.620Z,2.60
2018-08-30T12:59:34.572Z,2.80
2018-08-30T13:00:34.494Z,2.50
2018-08-30T13:01:34.461Z,2.60
2018-08-30T13:02:34.308Z,2.60
2018-08-30T13:03:34.215Z,2.40
2018-08-30T13:04:34.276Z,2.80
2018-08-30T13:05:34.163Z,2.70